Time;durP1;ratioP1;P1;durP2;ratioP2;P2;SDS_P1;SDS_P2;PMS_P1;PMS_P2;Temp;Humidity;BMP_temperature;BMP_pressure;BME280_temperature;BME280_humidity;BME280_pressure;Samples;Min_cycle;Max_cycle;Signal;HPM_P1;HPM_P2
2023/07/10 00:00:25;;;;;;;19.75;16.65;;;24.70;65.70;;;;;;5000057;28;20853;-52
2023/07/10 00:02:53;;;;;;;25.98;19.58;;;24.70;65.60;;;;;;4995775;28;20061;-49
2023/07/10 00:05:22;;;;;;;22.13;16.80;;;24.70;65.70;;;;;;4998288;28;20422;-50
2023/07/10 00:07:49;;;;;;;19.55;14.65;;;24.70;65.80;;;;;;5000958;28;20121;-48
2023/07/10 00:10:18;;;;;;;19.33;14.73;;;24.70;65.90;;;;;;4999585;28;20065;-48
2023/07/10 00:12:45;;;;;;;20.55;16.30;;;24.70;66.00;;;;;;5001410;28;20065;-51
2023/07/10 00:15:18;;;;;;;19.40;15.18;;;24.70;66.00;;;;;;5000598;28;20054;-51
2023/07/10 00:17:46;;;;;;;18.63;15.18;;;24.70;66.20;;;;;;5000752;28;20058;-56
2023/07/10 00:20:19;;;;;;;17.45;15.10;;;24.70;66.10;;;;;;4999299;28;20537;-52
2023/07/10 00:22:47;;;;;;;16.93;13.93;;;24.70;66.00;;;;;;4999677;28;20054;-50
2023/07/10 00:25:16;;;;;;;20.17;15.52;;;24.60;65.80;;;;;;4999124;28;20062;-51
2023/07/10 00:27:44;;;;;;;20.60;16.45;;;24.70;65.80;;;;;;5001720;28;20531;-53
2023/07/10 00:30:17;;;;;;;18.90;15.77;;;24.70;65.80;;;;;;4998264;28;20061;-48
2023/07/10 00:32:45;;;;;;;19.40;15.32;;;24.60;65.70;;;;;;5001095;28;20494;-57
2023/07/10 00:35:16;;;;;;;19.45;15.00;;;24.60;65.60;;;;;;5000506;28;20058;-50
2023/07/10 00:37:47;;;;;;;19.55;16.40;;;24.60;65.60;;;;;;4998456;28;20057;-54
2023/07/10 00:40:23;;;;;;;20.92;16.35;;;24.60;65.60;;;;;;4999738;28;20054;-60
2023/07/10 00:42:55;;;;;;;31.52;20.42;;;24.60;65.60;;;;;;5000717;28;20497;-59
2023/07/10 00:45:24;;;;;;;27.25;18.63;;;24.60;65.50;;;;;;4999167;28;20058;-59
2023/07/10 00:48:01;;;;;;;27.15;16.73;;;24.60;65.50;;;;;;5000543;28;20084;-60
2023/07/10 00:50:31;;;;;;;30.77;21.52;;;24.50;65.50;;;;;;4996416;28;20053;-60
2023/07/10 00:53:02;;;;;;;22.50;18.23;;;24.50;65.70;;;;;;4999008;28;20058;-60
2023/07/10 00:55:33;;;;;;;24.20;17.95;;;24.50;65.90;;;;;;4998278;28;20054;-59
2023/07/10 00:58:13;;;;;;;29.60;21.45;;;24.50;66.10;;;;;;5000907;28;20402;-59
2023/07/10 01:01:00;;;;;;;41.30;25.15;;;24.50;66.50;;;;;;5000375;28;20410;-59
2023/07/10 01:03:29;;;;;;;30.67;20.73;;;24.50;67.00;;;;;;4996927;23;20053;-84
2023/07/10 01:05:59;;;;;;;24.20;19.20;;;24.50;67.10;;;;;;4975899;28;20081;-83
2023/07/10 01:08:27;;;;;;;25.83;18.48;;;24.50;67.30;;;;;;4979046;28;20058;-84
2023/07/10 01:10:55;;;;;;;30.92;19.83;;;24.50;67.40;;;;;;4977758;28;20061;-83
2023/07/10 01:13:22;;;;;;;27.48;21.20;;;24.50;67.60;;;;;;4979599;28;20063;-84
2023/07/10 01:15:49;;;;;;;30.63;22.25;;;24.50;67.90;;;;;;4979908;28;20058;-84
2023/07/10 01:18:20;;;;;;;35.67;23.60;;;24.50;68.00;;;;;;4979201;28;20054;-84
2023/07/10 01:20:51;;;;;;;34.95;22.38;;;24.50;68.20;;;;;;4977570;28;20069;-84
2023/07/10 01:23:19;;;;;;;30.65;21.27;;;24.50;68.30;;;;;;4979186;28;20128;-84
2023/07/10 01:25:51;;;;;;;24.42;19.27;;;24.50;68.30;;;;;;4976238;28;20055;-83
2023/07/10 01:28:21;;;;;;;27.08;19.25;;;24.50;68.30;;;;;;4981038;28;20054;-84
2023/07/10 01:30:52;;;;;;;31.15;22.15;;;24.50;68.20;;;;;;4979740;28;20513;-84
2023/07/10 01:33:23;;;;;;;36.83;21.70;;;24.50;68.40;;;;;;4979840;28;20054;-84
2023/07/10 01:35:54;;;;;;;30.25;22.27;;;24.50;68.40;;;;;;4977072;28;20058;-84
2023/07/10 01:38:30;;;;;;;41.42;25.60;;;24.50;68.50;;;;;;4972185;28;20065;-84
2023/07/10 01:41:01;;;;;;;33.85;25.10;;;24.50;68.60;;;;;;4979331;28;20466;-84
2023/07/10 01:43:29;;;;;;;31.40;23.63;;;24.50;68.60;;;;;;4977818;28;20466;-84
2023/07/10 01:45:56;;;;;;;34.13;23.08;;;24.50;68.60;;;;;;4978141;28;20050;-84
2023/07/10 01:48:28;;;;;;;29.65;20.60;;;24.50;68.60;;;;;;4979854;28;20453;-85
2023/07/10 01:50:55;;;;;;;37.38;25.25;;;24.50;69.50;;;;;;4978646;28;20520;-84
2023/07/10 01:53:24;;;;;;;44.50;28.98;;;24.50;68.70;;;;;;4978221;28;20058;-84
2023/07/10 01:55:52;;;;;;;43.15;28.80;;;24.50;68.80;;;;;;4977505;28;20054;-83
2023/07/10 01:58:19;;;;;;;40.38;29.40;;;24.50;68.80;;;;;;4979649;28;20415;-84
2023/07/10 02:00:46;;;;;;;33.25;24.45;;;24.50;68.90;;;;;;4976068;28;20057;-85
2023/07/10 02:03:14;;;;;;;30.83;24.45;;;24.40;68.90;;;;;;4979233;28;20063;-85
2023/07/10 02:05:41;;;;;;;29.27;21.15;;;24.40;69.00;;;;;;4973803;28;20904;-84
2023/07/10 02:08:08;;;;;;;28.27;20.30;;;24.40;69.00;;;;;;4978432;28;20072;-84
2023/07/10 02:10:37;;;;;;;37.97;25.40;;;24.50;69.10;;;;;;4976007;28;20050;-84
2023/07/10 02:13:04;;;;;;;36.88;25.23;;;24.40;69.20;;;;;;4979378;28;20050;-85
2023/07/10 02:15:31;;;;;;;29.63;22.63;;;24.40;69.00;;;;;;4973814;28;20413;-85
2023/07/10 02:17:59;;;;;;;37.33;24.00;;;24.40;69.00;;;;;;4979015;28;20046;-85
2023/07/10 02:20:26;;;;;;;35.20;26.25;;;24.50;69.10;;;;;;4976595;28;20058;-85
2023/07/10 02:22:53;;;;;;;36.67;26.02;;;24.40;69.00;;;;;;4979016;28;20506;-85
2023/07/10 02:25:20;;;;;;;29.25;23.60;;;24.40;69.00;;;;;;4977281;28;20065;-85
2023/07/10 02:27:50;;;;;;;31.55;22.33;;;24.50;69.10;;;;;;4983105;28;20620;-85
2023/07/10 02:30:18;;;;;;;30.25;22.48;;;24.40;69.10;;;;;;4977323;28;20382;-85
2023/07/10 02:32:45;;;;;;;40.83;27.70;;;24.40;69.00;;;;;;4977126;28;20054;-85
2023/07/10 02:35:13;;;;;;;39.33;26.15;;;24.50;69.10;;;;;;4976423;28;21048;-85
2023/07/10 02:37:40;;;;;;;38.65;25.15;;;24.40;69.00;;;;;;4981951;28;20051;-85
2023/07/10 02:40:08;;;;;;;37.28;25.02;;;24.40;69.00;;;;;;4978458;28;20058;-85
2023/07/10 02:42:36;;;;;;;41.38;28.60;;;24.40;69.00;;;;;;4977100;28;20054;-84
2023/07/10 02:45:05;;;;;;;44.03;28.40;;;24.40;69.10;;;;;;4978415;28;20065;-84
2023/07/10 02:47:32;;;;;;;36.00;26.83;;;24.40;69.20;;;;;;4975590;28;20054;-84
2023/07/10 02:49:59;;;;;;;37.03;27.27;;;24.40;69.20;;;;;;4974995;28;20490;-85
2023/07/10 02:52:26;;;;;;;43.38;30.08;;;24.40;69.40;;;;;;4977474;28;20058;-85
2023/07/10 02:54:54;;;;;;;42.42;30.85;;;24.40;69.50;;;;;;4977512;28;20050;-85
2023/07/10 02:57:21;;;;;;;41.40;29.05;;;24.30;69.60;;;;;;4973256;28;21987;-85
2023/07/10 02:59:49;;;;;;;41.45;30.95;;;24.30;69.70;;;;;;4971411;28;20076;-85
2023/07/10 03:02:18;;;;;;;50.08;34.63;;;24.30;69.90;;;;;;4975222;28;20453;-84
2023/07/10 03:04:45;;;;;;;48.65;32.65;;;24.30;70.10;;;;;;4975283;28;20051;-85
2023/07/10 03:07:13;;;;;;;54.55;39.83;;;24.30;70.20;;;;;;4975881;28;20057;-84
2023/07/10 03:09:40;;;;;;;53.90;39.08;;;24.30;70.20;;;;;;4979653;28;20047;-84
2023/07/10 03:12:08;;;;;;;51.35;33.55;;;24.20;70.30;;;;;;4978387;28;20053;-87
2023/07/10 03:14:36;;;;;;;44.90;31.67;;;24.20;70.50;;;;;;4981808;28;20426;-84
2023/07/10 03:17:04;;;;;;;44.95;31.50;;;24.10;70.70;;;;;;4981616;28;20054;-85
2023/07/10 03:19:32;;;;;;;44.90;32.22;;;24.10;70.60;;;;;;4984608;28;20058;-85
2023/07/10 03:22:00;;;;;;;44.05;32.88;;;24.10;70.70;;;;;;4979594;28;20054;-84
2023/07/10 03:24:27;;;;;;;59.90;39.60;;;24.10;70.80;;;;;;4980193;28;20054;-84
2023/07/10 03:26:54;;;;;;;58.42;37.15;;;24.00;71.10;;;;;;4978104;28;20062;-84
2023/07/10 03:29:22;;;;;;;63.40;45.97;;;24.00;71.30;;;;;;4979943;28;20062;-84
2023/07/10 03:31:49;;;;;;;74.22;46.78;;;24.00;71.40;;;;;;4978373;28;20061;-85
2023/07/10 03:34:16;;;;;;;82.72;53.42;;;23.90;71.40;;;;;;4982288;28;20085;-86
2023/07/10 03:36:45;;;;;;;72.65;48.88;;;23.90;71.60;;;;;;4980950;28;20156;-84
2023/07/10 03:39:13;;;;;;;77.13;50.05;;;23.80;71.60;;;;;;4977660;28;20058;-84
2023/07/10 03:41:40;;;;;;;73.90;48.17;;;23.80;71.70;;;;;;4980117;28;20085;-83
2023/07/10 03:44:09;;;;;;;77.88;47.97;;;23.80;71.90;;;;;;4977082;28;20046;-85
2023/07/10 03:46:37;;;;;;;80.93;50.22;;;23.80;72.00;;;;;;4960848;28;20051;-84
2023/07/10 03:49:04;;;;;;;70.90;49.58;;;23.70;72.10;;;;;;4958391;28;20062;-84
2023/07/10 03:51:32;;;;;;;79.57;48.28;;;23.70;72.10;;;;;;4960030;28;20062;-85
2023/07/10 03:54:00;;;;;;;57.70;40.28;;;23.70;72.30;;;;;;4960711;28;20055;-84
2023/07/10 03:56:28;;;;;;;57.20;36.83;;;23.70;72.30;;;;;;4960094;28;20406;-85
2023/07/10 03:58:55;;;;;;;59.00;40.00;;;23.70;72.20;;;;;;4961084;28;20051;-84
2023/07/10 04:01:22;;;;;;;65.22;42.13;;;23.70;72.00;;;;;;4962554;28;20054;-85
2023/07/10 04:03:50;;;;;;;62.60;42.20;;;23.70;71.90;;;;;;4961279;28;20050;-85
2023/07/10 04:06:18;;;;;;;67.68;45.55;;;23.70;71.60;;;;;;4958091;28;20058;-85
2023/07/10 04:08:46;;;;;;;57.20;40.95;;;23.70;71.40;;;;;;4961614;28;20493;-85
2023/07/10 04:11:17;;;;;;;69.50;45.08;;;23.70;71.30;;;;;;4960277;28;20382;-85
2023/07/10 04:13:45;;;;;;;68.93;43.10;;;23.70;71.20;;;;;;4961145;28;20058;-86
2023/07/10 04:16:15;;;;;;;50.80;36.10;;;23.70;71.00;;;;;;4959640;28;20503;-86
2023/07/10 04:18:43;;;;;;;53.40;39.63;;;23.60;70.90;;;;;;4958393;28;20061;-85
2023/07/10 04:21:16;;;;;;;45.53;31.08;;;23.60;70.50;;;;;;4956697;28;20051;-85
2023/07/10 04:23:43;;;;;;;46.78;33.70;;;23.60;70.30;;;;;;4957971;28;20046;-87
2023/07/10 04:26:17;;;;;;;45.85;32.70;;;23.60;70.10;;;;;;4961181;28;20070;-84
2023/07/10 04:28:45;;;;;;;49.67;37.00;;;23.60;70.00;;;;;;4957075;28;20920;-85
2023/07/10 04:31:13;;;;;;;50.05;34.92;;;23.60;69.40;;;;;;4960739;28;20426;-84
2023/07/10 04:33:40;;;;;;;51.40;36.05;;;23.50;69.20;;;;;;4959863;28;20047;-88
2023/07/10 04:36:09;;;;;;;56.10;35.67;;;23.50;68.90;;;;;;4957535;28;20063;-84
2023/07/10 04:38:36;;;;;;;48.53;35.75;;;23.50;68.70;;;;;;4958504;28;20522;-85
2023/07/10 04:41:05;;;;;;;45.15;33.25;;;23.50;68.70;;;;;;4961274;28;21059;-84
2023/07/10 04:43:34;;;;;;;44.15;33.38;;;23.40;68.80;;;;;;4959882;28;20494;-84
2023/07/10 04:46:03;;;;;;;52.70;34.67;;;23.40;69.00;;;;;;4960504;28;20055;-85
2023/07/10 04:48:31;;;;;;;40.63;31.15;;;23.40;69.00;;;;;;4958376;28;20097;-84
2023/07/10 04:51:02;;;;;;;55.15;36.67;;;23.30;68.80;;;;;;4965733;28;20463;-84
2023/07/10 04:53:31;;;;;;;54.60;36.75;;;23.30;68.80;;;;;;4957648;28;20047;-84
2023/07/10 04:56:00;;;;;;;64.72;47.30;;;23.30;68.80;;;;;;4957784;28;20364;-88
2023/07/10 04:58:28;;;;;;;78.18;54.25;;;23.30;68.80;;;;;;4960132;28;20066;-84
2023/07/10 05:01:00;;;;;;;89.00;57.63;;;23.20;68.60;;;;;;4957106;28;20058;-84
2023/07/10 05:03:27;;;;;;;90.40;62.28;;;23.20;68.70;;;;;;4957399;28;20054;-84
2023/07/10 05:05:56;;;;;;;92.47;59.53;;;23.20;68.50;;;;;;4955558;28;20059;-84
2023/07/10 05:08:24;;;;;;;86.40;58.78;;;23.10;68.60;;;;;;4958258;28;20066;-85
2023/07/10 05:10:51;;;;;;;88.13;58.55;;;23.00;68.80;;;;;;4959866;28;20062;-84
2023/07/10 05:13:19;;;;;;;80.50;55.25;;;22.90;69.00;;;;;;4958393;28;20053;-83
2023/07/10 05:15:47;;;;;;;75.68;52.00;;;22.80;69.30;;;;;;4959049;28;20495;-83
2023/07/10 05:18:16;;;;;;;61.67;47.40;;;22.80;69.40;;;;;;4951656;28;20065;-83
2023/07/10 05:20:46;;;;;;;75.65;52.40;;;22.80;69.70;;;;;;4956251;28;20581;-83
2023/07/10 05:23:14;;;;;;;68.95;47.97;;;22.80;69.60;;;;;;4960090;28;20054;-84
2023/07/10 05:25:42;;;;;;;71.43;47.38;;;22.70;69.80;;;;;;4957741;28;20055;-83
2023/07/10 05:28:09;;;;;;;74.60;47.13;;;22.70;69.90;;;;;;4959887;28;20054;-85
2023/07/10 05:30:37;;;;;;;60.28;42.65;;;22.60;69.70;;;;;;4958618;28;20061;-83
2023/07/10 05:33:04;;;;;;;61.30;42.42;;;22.60;69.60;;;;;;4959799;28;20059;-83
2023/07/10 05:35:33;;;;;;;65.70;41.15;;;22.50;70.00;;;;;;4959345;28;20118;-83
2023/07/10 05:38:00;;;;;;;54.50;37.22;;;22.50;70.30;;;;;;4958852;28;20046;-83
2023/07/10 05:40:27;;;;;;;54.53;38.50;;;22.50;70.70;;;;;;4960176;28;20059;-83
2023/07/10 05:42:54;;;;;;;61.47;39.95;;;22.40;70.80;;;;;;4959226;28;20058;-84
2023/07/10 05:45:22;;;;;;;54.47;37.38;;;22.40;70.60;;;;;;4952499;28;20066;-84
2023/07/10 05:47:49;;;;;;;53.03;35.40;;;22.40;70.30;;;;;;4955110;28;20058;-84
2023/07/10 05:50:16;;;;;;;50.58;34.22;;;22.40;70.40;;;;;;4958731;28;20051;-82
2023/07/10 05:52:45;;;;;;;56.95;36.33;;;22.40;70.70;;;;;;4958603;28;20066;-82
2023/07/10 05:55:12;;;;;;;55.45;36.78;;;22.40;70.80;;;;;;4958609;28;20055;-83
2023/07/10 05:57:39;;;;;;;52.85;34.25;;;22.40;70.80;;;;;;4958351;28;20418;-84
2023/07/10 06:00:08;;;;;;;46.13;32.88;;;22.30;70.50;;;;;;4955895;28;20055;-86
2023/07/10 06:02:35;;;;;;;50.17;34.33;;;22.30;70.80;;;;;;4949905;28;20062;-85
2023/07/10 06:05:02;;;;;;;49.22;33.53;;;22.40;70.80;;;;;;4956898;28;20069;-83
2023/07/10 06:07:30;;;;;;;50.65;33.95;;;22.40;70.60;;;;;;4957492;28;20054;-84
2023/07/10 06:09:58;;;;;;;49.00;31.23;;;22.30;70.40;;;;;;4959025;28;20088;-83
2023/07/10 06:12:26;;;;;;;47.33;31.38;;;22.30;70.50;;;;;;4957921;28;20066;-85
2023/07/10 06:14:53;;;;;;;47.70;31.10;;;22.40;70.80;;;;;;4954875;28;20059;-83
2023/07/10 06:17:20;;;;;;;40.03;29.42;;;22.30;70.80;;;;;;4952525;28;20054;-83
2023/07/10 06:19:47;;;;;;;41.00;28.58;;;22.30;70.80;;;;;;4958862;28;20047;-84
2023/07/10 06:22:15;;;;;;;44.42;29.02;;;22.30;70.70;;;;;;4956717;28;20094;-83
2023/07/10 06:24:42;;;;;;;41.65;28.40;;;22.40;70.70;;;;;;4957818;28;20126;-83
2023/07/10 06:27:11;;;;;;;32.67;22.90;;;22.40;70.60;;;;;;4957821;28;20062;-84
2023/07/10 06:29:38;;;;;;;43.85;27.17;;;22.40;70.80;;;;;;4957857;28;20062;-86
2023/07/10 06:32:07;;;;;;;36.00;25.08;;;22.40;70.70;;;;;;4956725;28;20430;-84
2023/07/10 06:34:34;;;;;;;32.92;23.80;;;22.50;70.60;;;;;;4956941;28;21048;-85
2023/07/10 06:37:02;;;;;;;32.38;21.92;;;22.50;70.60;;;;;;4955970;28;20514;-84
2023/07/10 06:39:29;;;;;;;34.40;23.38;;;22.50;70.40;;;;;;4964787;28;20422;-85
2023/07/10 06:41:56;;;;;;;35.67;23.42;;;22.50;70.30;;;;;;4955020;28;20055;-87
2023/07/10 06:44:25;;;;;;;32.95;22.00;;;22.60;70.20;;;;;;4958871;28;20062;-85
2023/07/10 06:46:52;;;;;;;33.72;22.42;;;22.60;69.80;;;;;;4962909;28;20053;-85
2023/07/10 06:49:19;;;;;;;36.15;24.38;;;22.60;69.90;;;;;;4957998;28;20070;-85
2023/07/10 06:51:47;;;;;;;33.55;22.58;;;22.70;69.70;;;;;;4958937;28;20065;-85
2023/07/10 06:54:14;;;;;;;32.95;21.88;;;22.70;69.50;;;;;;4959629;28;20058;-85
2023/07/10 06:56:41;;;;;;;35.70;24.98;;;22.70;69.70;;;;;;4959943;28;20146;-85
2023/07/10 06:59:09;;;;;;;33.28;23.00;;;22.80;69.70;;;;;;4959402;28;20058;-84
2023/07/10 07:01:37;;;;;;;34.70;23.17;;;22.80;69.70;;;;;;4958440;28;20447;-86
2023/07/10 07:04:05;;;;;;;32.60;21.52;;;22.80;69.70;;;;;;4960910;28;20387;-85
2023/07/10 07:06:32;;;;;;;30.08;20.77;;;22.90;69.80;;;;;;4958430;28;20054;-86
2023/07/10 07:08:59;;;;;;;33.65;21.25;;;22.90;70.30;;;;;;4957673;28;20054;-84
2023/07/10 07:11:26;;;;;;;33.60;20.98;;;23.00;70.40;;;;;;4962400;28;20518;-86
2023/07/10 07:13:54;;;;;;;34.60;21.85;;;23.10;70.20;;;;;;4963900;28;20422;-84
2023/07/10 07:16:21;;;;;;;31.17;20.48;;;23.10;69.80;;;;;;4967082;28;20105;-85
2023/07/10 07:18:51;;;;;;;26.75;18.50;;;23.20;69.50;;;;;;4960664;28;20062;-85
2023/07/10 07:21:18;;;;;;;33.97;22.60;;;23.30;69.30;;;;;;4958145;28;20402;-85
2023/07/10 07:23:45;;;;;;;28.38;19.35;;;23.40;68.90;;;;;;4960732;28;20491;-85
2023/07/10 07:26:13;;;;;;;28.10;18.15;;;23.40;68.50;;;;;;4959194;28;20065;-87
2023/07/10 07:28:41;;;;;;;32.22;18.00;;;23.50;68.20;;;;;;4954642;28;20051;-85
2023/07/10 07:31:08;;;;;;;28.75;17.08;;;23.60;68.00;;;;;;4960382;28;20065;-85
2023/07/10 07:33:35;;;;;;;25.98;16.63;;;23.60;67.70;;;;;;4961694;28;20051;-85
2023/07/10 07:36:04;;;;;;;22.75;14.45;;;23.70;67.40;;;;;;4966509;28;20042;-86
2023/07/10 07:38:32;;;;;;;23.40;14.73;;;23.70;67.00;;;;;;4962724;28;20057;-85
2023/07/10 07:40:59;;;;;;;31.00;14.45;;;23.80;66.50;;;;;;4964930;28;20062;-86
2023/07/10 07:43:28;;;;;;;19.50;10.38;;;23.80;66.00;;;;;;4963245;28;20065;-85
2023/07/10 07:45:56;;;;;;;23.05;11.73;;;23.80;65.90;;;;;;4962159;28;20434;-85
2023/07/10 07:48:25;;;;;;;24.42;13.73;;;23.90;65.40;;;;;;4961727;28;20384;-85
2023/07/10 07:50:56;;;;;;;20.17;11.00;;;23.90;64.70;;;;;;4963134;28;20058;-85
2023/07/10 07:53:25;;;;;;;23.45;12.02;;;23.90;64.40;;;;;;4959281;28;20057;-86
2023/07/10 07:55:53;;;;;;;19.83;12.13;;;24.00;65.30;;;;;;4961119;28;20054;-85
2023/07/10 07:58:21;;;;;;;19.60;11.73;;;24.00;64.50;;;;;;4963120;28;20058;-85
2023/07/10 08:00:50;;;;;;;22.00;13.48;;;24.10;64.30;;;;;;4960530;28;20054;-86
2023/07/10 08:03:17;;;;;;;20.38;13.82;;;24.10;64.10;;;;;;4960765;28;20534;-85
2023/07/10 08:05:44;;;;;;;20.58;12.77;;;24.10;63.90;;;;;;4968347;28;20061;-85
2023/07/10 08:08:12;;;;;;;21.42;14.07;;;24.20;63.80;;;;;;4965072;28;20063;-85
2023/07/10 08:10:43;;;;;;;25.95;14.15;;;24.20;63.40;;;;;;4960931;28;20510;-85
2023/07/10 08:13:11;;;;;;;27.95;14.18;;;24.20;63.40;;;;;;4962340;28;20055;-85
2023/07/10 08:15:40;;;;;;;20.25;12.70;;;24.20;63.30;;;;;;4961704;28;20070;-87
2023/07/10 08:18:08;;;;;;;28.00;15.90;;;24.20;63.00;;;;;;4960044;28;20155;-86
2023/07/10 08:20:36;;;;;;;28.13;18.25;;;24.30;62.60;;;;;;4962522;28;20395;-87
2023/07/10 08:23:05;;;;;;;31.85;16.73;;;24.30;62.10;;;;;;4964198;28;20066;-88
2023/07/10 08:25:33;;;;;;;26.20;16.58;;;24.40;61.90;;;;;;4960045;28;20057;-87
2023/07/10 08:28:02;;;;;;;31.27;17.25;;;24.40;61.70;;;;;;4963441;28;20062;-87
2023/07/10 08:30:29;;;;;;;27.08;17.60;;;24.40;61.40;;;;;;4961644;28;20062;-88
2023/07/10 08:32:56;;;;;;;38.08;23.30;;;24.40;61.10;;;;;;4960060;28;20055;-86
2023/07/10 08:35:24;;;;;;;28.85;18.08;;;24.40;59.40;;;;;;4962864;28;20410;-86
2023/07/10 08:37:51;;;;;;;25.90;17.13;;;24.40;59.50;;;;;;4962730;28;20097;-86
2023/07/10 08:40:27;;;;;;;28.30;20.23;;;24.40;60.10;;;;;;4962586;28;20070;-87
2023/07/10 08:42:54;;;;;;;31.35;21.65;;;24.30;60.10;;;;;;4965359;28;20054;-87
2023/07/10 08:45:33;;;;;;;35.47;20.48;;;24.30;59.60;;;;;;4960049;28;20055;-85
2023/07/10 08:48:15;;;;;;;21.35;15.80;;;24.30;59.00;;;;;;4959445;28;20152;-86
2023/07/10 08:50:47;;;;;;;31.17;17.75;;;24.30;60.00;;;;;;4968215;28;20466;-86
2023/07/10 08:53:19;;;;;;;24.42;16.67;;;24.30;59.20;;;;;;4956369;28;20057;-85
2023/07/10 08:55:51;;;;;;;27.20;18.38;;;24.30;60.00;;;;;;4962953;28;20483;-85
2023/07/10 08:58:21;;;;;;;19.92;14.65;;;24.30;59.70;;;;;;4957315;28;20352;-85
2023/07/10 09:00:56;;;;;;;21.67;14.50;;;24.30;59.30;;;;;;4955678;28;20046;-89
2023/07/10 09:03:36;;;;;;;18.10;12.73;;;24.40;59.40;;;;;;4953549;28;20059;-87
2023/07/10 09:06:05;;;;;;;21.98;15.35;;;24.40;59.60;;;;;;4951317;28;20046;-85
2023/07/10 09:08:34;;;;;;;23.15;14.73;;;24.50;59.00;;;;;;4955148;28;20058;-85
2023/07/10 09:11:04;;;;;;;21.55;14.23;;;24.50;58.50;;;;;;4957478;28;20054;-86
2023/07/10 09:13:38;;;;;;;17.67;11.75;;;24.50;58.30;;;;;;4954861;28;20051;-84
2023/07/10 09:16:15;;;;;;;14.45;10.05;;;24.50;58.50;;;;;;4953204;28;20077;-85
2023/07/10 09:18:48;;;;;;;18.92;12.50;;;24.60;58.00;;;;;;4957030;28;20050;-85
2023/07/10 09:21:18;;;;;;;18.83;11.67;;;24.60;57.70;;;;;;4955107;28;20058;-85
2023/07/10 09:23:46;;;;;;;21.02;11.70;;;24.70;56.70;;;;;;4960866;28;20498;-85
2023/07/10 09:26:16;;;;;;;15.68;11.10;;;24.70;56.70;;;;;;4957464;28;20356;-86
2023/07/10 09:28:46;;;;;;;16.00;9.73;;;24.70;56.90;;;;;;4959181;28;20463;-83
2023/07/10 09:31:26;;;;;;;17.65;10.57;;;24.70;56.90;;;;;;4958406;28;20058;-84
2023/07/10 09:34:00;;;;;;;16.42;10.02;;;24.70;57.30;;;;;;4957071;28;20054;-84
2023/07/10 09:36:28;;;;;;;15.68;10.10;;;24.70;57.00;;;;;;4956739;28;20046;-83
2023/07/10 09:38:57;;;;;;;12.15;8.35;;;24.80;56.90;;;;;;4958578;28;20059;-84
2023/07/10 09:41:27;;;;;;;11.45;6.82;;;24.90;56.80;;;;;;4959395;28;20077;-83
2023/07/10 09:43:56;;;;;;;13.20;6.90;;;24.90;56.90;;;;;;4955951;28;20046;-83
2023/07/10 09:46:28;;;;;;;8.77;5.22;;;25.00;56.70;;;;;;4957367;28;20047;-84
2023/07/10 09:48:58;;;;;;;9.77;5.70;;;25.00;56.20;;;;;;4956785;28;20054;-84
2023/07/10 09:51:26;;;;;;;12.43;6.18;;;25.00;56.20;;;;;;4956363;28;20062;-84
2023/07/10 09:54:02;;;;;;;16.15;6.70;;;25.10;55.90;;;;;;4957616;28;20054;-85
2023/07/10 09:56:35;;;;;;;13.88;6.45;;;25.10;54.60;;;;;;4960333;28;20054;-83
2023/07/10 09:59:03;;;;;;;8.25;5.43;;;25.20;54.40;;;;;;4959557;28;20063;-83
2023/07/10 10:01:32;;;;;;;9.48;5.85;;;25.20;54.30;;;;;;4953358;28;20054;-82
2023/07/10 10:04:02;;;;;;;6.68;4.70;;;25.20;54.80;;;;;;4955828;28;20066;-85
2023/07/10 10:06:32;;;;;;;9.27;4.65;;;25.20;55.10;;;;;;4954486;28;20053;-81
2023/07/10 10:09:14;;;;;;;10.18;4.68;;;25.30;55.30;;;;;;4959129;28;20919;-82
2023/07/10 10:11:46;;;;;;;9.48;4.90;;;25.40;55.40;;;;;;4954844;28;20085;-84
2023/07/10 10:14:19;;;;;;;9.38;4.85;;;25.50;55.00;;;;;;4957749;28;20419;-83
2023/07/10 10:16:54;;;;;;;7.47;4.75;;;25.50;55.10;;;;;;4955242;28;20077;-83
2023/07/10 10:19:25;;;;;;;8.93;5.10;;;25.60;54.80;;;;;;4966036;28;20499;-82
2023/07/10 10:21:52;;;;;;;10.95;6.18;;;25.60;54.70;;;;;;4959338;28;20520;-82
2023/07/10 10:24:20;;;;;;;9.80;4.88;;;25.70;54.60;;;;;;4961183;28;20459;-82
2023/07/10 10:27:02;;;;;;;9.15;5.10;;;25.70;54.40;;;;;;4964025;28;20109;-82
2023/07/10 10:30:02;;;;;;;8.15;5.18;;;25.80;53.70;;;;;;4962239;28;20058;-84
2023/07/10 10:32:39;;;;;;;9.25;5.05;;;25.80;53.60;;;;;;4940007;28;20066;-83
2023/07/10 10:35:17;;;;;;;5.97;4.28;;;25.80;53.90;;;;;;4960389;28;20062;-84
2023/07/10 10:38:02;;;;;;;7.78;4.60;;;25.80;53.40;;;;;;4958199;28;20050;-84
2023/07/10 10:40:38;;;;;;;21.83;4.22;;;25.90;53.30;;;;;;4962657;28;20050;-84
2023/07/10 10:43:25;;;;;;;7.07;4.13;;;26.00;53.30;;;;;;4960296;28;20058;-84
2023/07/10 10:45:57;;;;;;;7.28;3.58;;;26.00;53.10;;;;;;4960873;28;20058;-85
2023/07/10 10:48:31;;;;;;;7.95;3.60;;;26.00;53.10;;;;;;4962399;28;20066;-85
2023/07/10 10:51:06;;;;;;;11.15;4.55;;;26.10;53.10;;;;;;4958982;28;20061;-84
2023/07/10 10:53:46;;;;;;;10.32;5.25;;;26.10;51.80;;;;;;4960898;28;20054;-84
2023/07/10 10:56:20;;;;;;;10.60;5.22;;;26.20;50.90;;;;;;4961353;28;20051;-85
2023/07/10 10:58:57;;;;;;;7.68;4.20;;;26.20;49.70;;;;;;4963724;28;20055;-85
2023/07/10 11:01:36;;;;;;;7.25;4.25;;;26.20;50.20;;;;;;4961276;28;20074;-85
2023/07/10 11:04:15;;;;;;;6.93;3.42;;;26.10;50.80;;;;;;4962402;28;20510;-84
2023/07/10 11:06:52;;;;;;;4.65;2.33;;;26.10;50.00;;;;;;4958430;28;20487;-85
2023/07/10 11:09:23;;;;;;;5.30;2.83;;;26.10;50.60;;;;;;4958886;28;20392;-84
2023/07/10 11:11:52;;;;;;;7.65;3.10;;;26.10;50.60;;;;;;4958389;28;20059;-86
2023/07/10 11:14:20;;;;;;;4.78;2.22;;;26.20;49.40;;;;;;4957925;28;20047;-85
2023/07/10 11:16:48;;;;;;;3.70;1.83;;;26.20;49.10;;;;;;4959610;28;20057;-86
2023/07/10 11:19:21;;;;;;;3.90;2.10;;;26.20;49.20;;;;;;4957607;28;20493;-86
2023/07/10 11:21:50;;;;;;;7.25;3.38;;;26.20;49.50;;;;;;4955131;28;20415;-85
2023/07/10 11:24:34;;;;;;;5.28;3.40;;;26.20;49.60;;;;;;4959297;28;20070;-85
2023/07/10 11:27:10;;;;;;;6.88;2.88;;;26.30;48.80;;;;;;4961040;28;20051;-84
2023/07/10 11:29:41;;;;;;;5.97;2.90;;;26.40;48.00;;;;;;4956471;28;20054;-84
2023/07/10 11:32:17;;;;;;;6.63;2.95;;;26.40;46.50;;;;;;4960347;28;20046;-83
2023/07/10 11:34:55;;;;;;;4.53;2.40;;;26.40;47.40;;;;;;4958771;28;20062;-85
2023/07/10 11:37:41;;;;;;;6.05;2.60;;;26.40;46.40;;;;;;4955362;28;20046;-85
2023/07/10 11:40:56;;;;;;;4.28;2.28;;;26.40;46.30;;;;;;4958634;28;20379;-82
2023/07/10 11:44:14;;;;;;;6.97;2.65;;;26.40;46.80;;;;;;4917845;28;20496;-85
2023/07/10 11:46:59;;;;;;;3.50;2.10;;;26.50;45.80;;;;;;4947221;28;20055;-84
2023/07/10 11:49:28;;;;;;;3.58;1.95;;;26.50;46.20;;;;;;4953390;28;20054;-85
2023/07/10 11:52:29;;;;;;;6.53;2.40;;;26.50;47.20;;;;;;4966410;28;20054;-85
2023/07/10 11:55:26;;;;;;;4.78;1.95;;;26.50;45.40;;;;;;4952430;28;20086;-85
2023/07/10 11:58:23;;;;;;;4.18;2.10;;;26.70;44.30;;;;;;4956486;28;20051;-86
2023/07/10 12:00:52;;;;;;;6.20;2.20;;;26.70;44.90;;;;;;4960303;28;20055;-84
2023/07/10 12:03:19;;;;;;;5.28;2.40;;;26.70;45.00;;;;;;4956343;28;20423;-85
2023/07/10 12:05:48;;;;;;;3.75;2.00;;;26.80;44.60;;;;;;4960212;28;20057;-85
2023/07/10 12:08:17;;;;;;;6.15;2.40;;;26.90;44.40;;;;;;4956265;28;20078;-84
2023/07/10 12:10:47;;;;;;;4.88;1.98;;;27.00;43.70;;;;;;4958543;28;20422;-85
2023/07/10 12:13:20;;;;;;;4.85;2.50;;;27.00;43.90;;;;;;4957785;28;20062;-87
2023/07/10 12:15:49;;;;;;;4.93;2.20;;;27.10;42.80;;;;;;4960856;28;20051;-86
2023/07/10 12:18:21;;;;;;;5.18;1.98;;;27.10;42.00;;;;;;4960511;28;20055;-84
2023/07/10 12:20:50;;;;;;;3.67;1.80;;;27.20;43.90;;;;;;4960876;28;20081;-85
2023/07/10 12:23:19;;;;;;;5.38;2.13;;;27.20;42.60;;;;;;4961589;28;20070;-85
2023/07/10 12:25:48;;;;;;;3.60;1.83;;;27.20;43.70;;;;;;4959965;28;20065;-85
2023/07/10 12:28:17;;;;;;;4.30;1.92;;;27.30;44.10;;;;;;4958462;28;20062;-85
2023/07/10 12:30:49;;;;;;;5.57;2.35;;;27.40;44.90;;;;;;4960997;28;20063;-85
2023/07/10 12:33:38;;;;;;;4.78;1.90;;;27.40;43.70;;;;;;4965016;28;20061;-84
2023/07/10 12:36:13;;;;;;;4.28;2.17;;;27.60;42.00;;;;;;4954393;28;20054;-86
2023/07/10 12:38:43;;;;;;;3.33;1.75;;;27.60;41.20;;;;;;4958725;28;20046;-85
2023/07/10 12:41:10;;;;;;;7.43;1.95;;;27.60;42.00;;;;;;4960459;28;20051;-85
2023/07/10 12:43:37;;;;;;;3.83;2.15;;;27.70;41.10;;;;;;4957798;28;20055;-85
2023/07/10 12:46:15;;;;;;;3.78;2.10;;;27.70;40.80;;;;;;4960906;28;20090;-87